Time;durP1;ratioP1;P1;durP2;ratioP2;P2;SDS_P1;SDS_P2;PMS_P1;PMS_P2;Temp;Humidity;BMP_temperature;BMP_pressure;BME280_temperature;BME280_humidity;BME280_pressure;Samples;Min_cycle;Max_cycle;Signal;HPM_P1;HPM_P2
2023/04/04 00:00:13;;;;;;;3.15;2.50;;;;;;;;;;4973251;28;99035;-76
2023/04/04 00:02:39;;;;;;;2.70;2.53;;;;;;;;;;4974807;28;98254;-75
2023/04/04 00:05:07;;;;;;;5.82;3.00;;;;;;;;;;4974641;28;98607;-76
2023/04/04 00:07:33;;;;;;;2.80;2.60;;;;;;;;;;4972485;28;99988;-76
2023/04/04 00:10:00;;;;;;;7.22;3.45;;;;;;;;;;4974223;28;98270;-76
2023/04/04 00:12:26;;;;;;;3.22;2.92;;;;;;;;;;4972739;28;99678;-75
2023/04/04 00:14:56;;;;;;;3.33;3.00;;;;;;;;;;4973274;28;99795;-76
2023/04/04 00:17:22;;;;;;;7.72;3.08;;;;;;;;;;4976912;28;98231;-76
2023/04/04 00:19:49;;;;;;;4.10;2.90;;;;;;;;;;4975228;28;99418;-76
2023/04/04 00:22:16;;;;;;;3.05;2.60;;;;;;;;;;4979777;28;98784;-76
2023/04/04 00:24:43;;;;;;;4.25;3.28;;;;;;;;;;4971721;28;99391;-75
2023/04/04 00:27:09;;;;;;;6.65;3.38;;;;;;;;;;4969895;28;100115;-76
2023/04/04 00:29:36;;;;;;;3.58;2.95;;;;;;;;;;4970935;28;98108;-76
2023/04/04 00:32:02;;;;;;;8.85;4.57;;;;;;;;;;4970594;28;98328;-75
2023/04/04 00:34:29;;;;;;;6.68;3.47;;;;;;;;;;4969956;28;98681;-75
2023/04/04 00:36:55;;;;;;;4.78;3.10;;;;;;;;;;4970224;28;97960;-75
2023/04/04 00:39:22;;;;;;;4.90;3.30;;;;;;;;;;4972063;28;100560;-75
2023/04/04 00:41:49;;;;;;;19.33;3.92;;;;;;;;;;4969750;28;97956;-75
2023/04/04 00:44:15;;;;;;;3.92;3.05;;;;;;;;;;4970492;28;99690;-75
2023/04/04 00:46:42;;;;;;;5.95;3.45;;;;;;;;;;4970222;28;99051;-75
2023/04/04 00:49:08;;;;;;;6.47;3.08;;;;;;;;;;4968367;28;98307;-75
2023/04/04 00:51:35;;;;;;;5.22;3.20;;;;;;;;;;4970792;28;98448;-75
2023/04/04 00:54:01;;;;;;;3.38;3.08;;;;;;;;;;4969308;28;100038;-75
2023/04/04 00:56:29;;;;;;;4.50;3.20;;;;;;;;;;4969648;28;98613;-75
2023/04/04 00:58:56;;;;;;;4.82;3.40;;;;;;;;;;4971586;28;99499;-75
2023/04/04 01:01:24;;;;;;;4.30;3.42;;;;;;;;;;4970563;28;98270;-75
2023/04/04 01:03:51;;;;;;;5.18;3.75;;;;;;;;;;4969160;28;99765;-75
2023/04/04 01:06:18;;;;;;;8.88;3.78;;;;;;;;;;4973048;28;98747;-75
2023/04/04 01:08:45;;;;;;;4.13;3.50;;;;;;;;;;4971709;28;98260;-75
2023/04/04 01:11:12;;;;;;;3.22;2.75;;;;;;;;;;4976780;28;98668;-75
2023/04/04 01:13:38;;;;;;;5.28;3.33;;;;;;;;;;4991485;28;98769;-76
2023/04/04 01:16:06;;;;;;;4.57;3.33;;;;;;;;;;4982786;28;98636;-75
2023/04/04 01:18:34;;;;;;;6.15;3.55;;;;;;;;;;4985621;28;99585;-75
2023/04/04 01:21:02;;;;;;;4.05;3.70;;;;;;;;;;4972854;28;98927;-75
2023/04/04 01:23:54;;;;;;;4.38;3.72;;;;;;;;;;4969566;28;98321;-75
2023/04/04 01:26:22;;;;;;;3.90;3.55;;;;;;;;;;4965826;28;100882;-77
2023/04/04 01:28:50;;;;;;;3.80;3.15;;;;;;;;;;4994950;28;98282;-77
2023/04/04 01:31:20;;;;;;;5.90;3.85;;;;;;;;;;4988970;28;98307;-77
2023/04/04 01:33:52;;;;;;;3.92;3.58;;;;;;;;;;4987719;28;101650;-77
2023/04/04 01:36:27;;;;;;;6.32;3.95;;;;;;;;;;4989743;28;98670;-76
2023/04/04 01:39:07;;;;;;;4.63;3.70;;;;;;;;;;4983664;28;100462;-77
2023/04/04 01:41:34;;;;;;;4.95;3.47;;;;;;;;;;4969674;28;98823;-76
2023/04/04 01:44:02;;;;;;;4.05;3.75;;;;;;;;;;4970784;28;98250;-76
2023/04/04 01:46:28;;;;;;;4.50;3.63;;;;;;;;;;4968411;28;101320;-75
2023/04/04 01:48:55;;;;;;;6.22;3.80;;;;;;;;;;4969433;28;98700;-76
2023/04/04 01:51:27;;;;;;;5.38;4.07;;;;;;;;;;4966585;28;98515;-75
2023/04/04 01:53:54;;;;;;;4.72;3.90;;;;;;;;;;4968703;28;100221;-76
2023/04/04 01:56:21;;;;;;;4.28;3.88;;;;;;;;;;4968194;28;98226;-76
2023/04/04 01:58:48;;;;;;;5.35;3.70;;;;;;;;;;4968291;28;99879;-75
2023/04/04 02:01:14;;;;;;;6.43;3.88;;;;;;;;;;4967704;28;101593;-76
2023/04/04 02:03:41;;;;;;;5.00;3.38;;;;;;;;;;4968606;28;98255;-75
2023/04/04 02:06:08;;;;;;;4.68;3.60;;;;;;;;;;4971746;28;99378;-76
2023/04/04 02:08:35;;;;;;;7.68;3.90;;;;;;;;;;4950570;28;98300;-75
2023/04/04 02:11:02;;;;;;;4.07;3.67;;;;;;;;;;4967217;28;100567;-75
2023/04/04 02:13:28;;;;;;;6.65;3.88;;;;;;;;;;4966982;28;101642;-75
2023/04/04 02:15:57;;;;;;;4.65;4.22;;;;;;;;;;4967047;28;98933;-75
2023/04/04 02:18:24;;;;;;;4.85;4.40;;;;;;;;;;4968980;28;99748;-76
2023/04/04 02:20:56;;;;;;;7.40;4.40;;;;;;;;;;4967153;28;101550;-75
2023/04/04 02:23:22;;;;;;;4.22;3.70;;;;;;;;;;4969565;28;98246;-76
2023/04/04 02:25:49;;;;;;;7.22;4.28;;;;;;;;;;4970675;28;98365;-75
2023/04/04 02:28:16;;;;;;;13.27;4.28;;;;;;;;;;4971237;28;99316;-75
2023/04/04 02:30:42;;;;;;;5.43;4.10;;;;;;;;;;4967364;28;100938;-75
2023/04/04 02:33:10;;;;;;;4.05;3.72;;;;;;;;;;4967065;28;101556;-75
2023/04/04 02:35:37;;;;;;;6.15;3.95;;;;;;;;;;4968335;28;98250;-75
2023/04/04 02:38:04;;;;;;;6.72;4.55;;;;;;;;;;4967076;28;100478;-75
2023/04/04 02:40:40;;;;;;;6.40;3.80;;;;;;;;;;4965647;28;101875;-75
2023/04/04 02:43:07;;;;;;;4.68;4.05;;;;;;;;;;4967201;28;98764;-75
2023/04/04 02:45:35;;;;;;;4.78;4.28;;;;;;;;;;4967639;28;100176;-75
2023/04/04 02:48:10;;;;;;;7.15;4.30;;;;;;;;;;4965784;28;101438;-76
2023/04/04 02:50:41;;;;;;;10.77;4.93;;;;;;;;;;4970591;28;98246;-75
2023/04/04 02:53:11;;;;;;;10.88;4.65;;;;;;;;;;4967644;28;100993;-75
2023/04/04 02:55:37;;;;;;;7.32;4.07;;;;;;;;;;4968020;28;98346;-75
2023/04/04 02:58:04;;;;;;;4.57;4.00;;;;;;;;;;4967368;28;100893;-74
2023/04/04 03:00:30;;;;;;;6.10;4.15;;;;;;;;;;4968074;28;98860;-75
2023/04/04 03:02:57;;;;;;;4.25;3.90;;;;;;;;;;4966304;28;98322;-75
2023/04/04 03:05:33;;;;;;;5.28;4.47;;;;;;;;;;4966287;28;101187;-75
2023/04/04 03:08:01;;;;;;;9.43;4.60;;;;;;;;;;4966702;28;101979;-75
2023/04/04 03:10:31;;;;;;;5.63;4.40;;;;;;;;;;4969904;28;98416;-75
2023/04/04 03:12:57;;;;;;;6.20;4.60;;;;;;;;;;4966268;28;99135;-75
2023/04/04 03:15:26;;;;;;;5.13;4.55;;;;;;;;;;4966450;28;98537;-75
2023/04/04 03:17:53;;;;;;;10.65;4.85;;;;;;;;;;4966702;28;101147;-75
2023/04/04 03:20:23;;;;;;;6.10;4.47;;;;;;;;;;4966837;28;101839;-75
2023/04/04 03:22:49;;;;;;;5.78;4.30;;;;;;;;;;4967297;28;98286;-75
2023/04/04 03:25:16;;;;;;;4.68;4.30;;;;;;;;;;4983729;28;99426;-75
2023/04/04 03:27:42;;;;;;;6.53;4.93;;;;;;;;;;4983182;28;101143;-76
2023/04/04 03:30:12;;;;;;;16.80;5.25;;;;;;;;;;4965465;28;98311;-75
2023/04/04 03:32:39;;;;;;;6.50;4.53;;;;;;;;;;4971975;28;98623;-75
2023/04/04 03:35:06;;;;;;;4.95;4.10;;;;;;;;;;4966914;28;98033;-75
2023/04/04 03:37:32;;;;;;;5.32;4.78;;;;;;;;;;4967704;28;98436;-75
2023/04/04 03:39:58;;;;;;;9.50;5.47;;;;;;;;;;4967520;28;98832;-75
2023/04/04 03:42:25;;;;;;;8.48;4.88;;;;;;;;;;4967995;28;98474;-75
2023/04/04 03:44:52;;;;;;;5.50;5.00;;;;;;;;;;4966199;28;100698;-75
2023/04/04 03:47:27;;;;;;;5.00;4.60;;;;;;;;;;4984475;28;101358;-75
2023/04/04 03:49:56;;;;;;;7.97;5.22;;;;;;;;;;4987259;28;98153;-74
2023/04/04 03:52:23;;;;;;;6.38;4.97;;;;;;;;;;5002456;28;101383;-75
2023/04/04 03:54:50;;;;;;;7.57;6.25;;;;;;;;;;4989527;28;99672;-75
2023/04/04 03:57:17;;;;;;;7.50;5.10;;;;;;;;;;4970650;28;99665;-75
2023/04/04 03:59:43;;;;;;;7.15;4.85;;;;;;;;;;4964595;28;101758;-75
2023/04/04 04:02:10;;;;;;;10.02;5.25;;;;;;;;;;5002793;28;98336;-74
2023/04/04 04:04:37;;;;;;;5.95;4.95;;;;;;;;;;4970401;28;98491;-75
2023/04/04 04:07:03;;;;;;;7.95;4.85;;;;;;;;;;4969101;28;98961;-75
2023/04/04 04:09:30;;;;;;;10.70;4.90;;;;;;;;;;4971109;28;98198;-75
2023/04/04 04:11:56;;;;;;;8.85;4.72;;;;;;;;;;4970405;28;98585;-75
2023/04/04 04:14:22;;;;;;;7.90;5.03;;;;;;;;;;4969418;28;101444;-75
2023/04/04 04:16:49;;;;;;;10.95;5.47;;;;;;;;;;4972712;28;98178;-75
2023/04/04 04:19:19;;;;;;;8.43;4.78;;;;;;;;;;4968475;28;101402;-75
2023/04/04 04:21:46;;;;;;;6.63;5.68;;;;;;;;;;4969021;28;98406;-75
2023/04/04 04:24:13;;;;;;;7.78;6.22;;;;;;;;;;4969756;28;99652;-75
2023/04/04 04:26:40;;;;;;;8.55;4.70;;;;;;;;;;4968728;28;99992;-75
2023/04/04 04:29:07;;;;;;;7.47;5.28;;;;;;;;;;4969082;28;98263;-75
2023/04/04 04:31:33;;;;;;;5.85;5.25;;;;;;;;;;4969208;28;100909;-75
2023/04/04 04:34:00;;;;;;;6.18;5.50;;;;;;;;;;4967929;28;100803;-75
2023/04/04 04:36:29;;;;;;;7.30;5.40;;;;;;;;;;4969805;28;98264;-75
2023/04/04 04:39:11;;;;;;;8.20;5.32;;;;;;;;;;4972350;28;100430;-75
2023/04/04 04:41:49;;;;;;;7.97;5.88;;;;;;;;;;4968395;28;98830;-75
2023/04/04 04:44:16;;;;;;;5.50;4.95;;;;;;;;;;4968244;28;101331;-75
2023/04/04 04:46:43;;;;;;;6.07;5.43;;;;;;;;;;4969154;28;98659;-75
2023/04/04 04:49:14;;;;;;;9.52;5.85;;;;;;;;;;4969232;28;98231;-75
2023/04/04 04:51:42;;;;;;;5.80;5.30;;;;;;;;;;4969548;28;100713;-75
2023/04/04 04:54:10;;;;;;;7.05;5.68;;;;;;;;;;4967944;28;99846;-75
2023/04/04 04:56:38;;;;;;;10.15;5.57;;;;;;;;;;4968682;28;98331;-74
2023/04/04 04:59:10;;;;;;;6.22;5.22;;;;;;;;;;4968408;28;101799;-75
2023/04/04 05:01:39;;;;;;;6.22;5.35;;;;;;;;;;4970655;28;98279;-75
2023/04/04 05:04:07;;;;;;;6.47;5.88;;;;;;;;;;4969955;28;98127;-75
2023/04/04 05:06:52;;;;;;;8.55;5.78;;;;;;;;;;4967939;28;100014;-75
2023/04/04 05:09:19;;;;;;;8.07;6.18;;;;;;;;;;4969178;28;98225;-75
2023/04/04 05:11:46;;;;;;;5.95;5.07;;;;;;;;;;4969264;28;98263;-75
2023/04/04 05:14:14;;;;;;;9.43;5.90;;;;;;;;;;4968507;28;101244;-75
2023/04/04 05:16:49;;;;;;;6.78;5.60;;;;;;;;;;4967557;28;98218;-74
2023/04/04 05:19:16;;;;;;;7.43;5.30;;;;;;;;;;4968555;28;100079;-75
2023/04/04 05:21:47;;;;;;;11.35;5.68;;;;;;;;;;4970908;28;99022;-75
2023/04/04 05:24:26;;;;;;;10.38;6.00;;;;;;;;;;4968367;28;101302;-75
2023/04/04 05:26:53;;;;;;;8.40;6.07;;;;;;;;;;4979217;28;101401;-75
2023/04/04 05:29:19;;;;;;;8.77;5.57;;;;;;;;;;4989334;28;98235;-75
2023/04/04 05:31:47;;;;;;;8.80;5.82;;;;;;;;;;4981692;28;99451;-75
2023/04/04 05:34:17;;;;;;;7.72;5.85;;;;;;;;;;5000622;28;102402;-75
2023/04/04 05:36:46;;;;;;;6.47;5.50;;;;;;;;;;4967188;28;98392;-75
2023/04/04 05:39:13;;;;;;;14.38;6.05;;;;;;;;;;4968786;28;100915;-75
2023/04/04 05:41:49;;;;;;;7.45;5.55;;;;;;;;;;5000834;28;101170;-75
2023/04/04 05:44:17;;;;;;;6.22;5.70;;;;;;;;;;4972776;28;99068;-75
2023/04/04 05:46:43;;;;;;;6.47;5.88;;;;;;;;;;4969236;28;98751;-76
2023/04/04 05:49:11;;;;;;;10.90;5.40;;;;;;;;;;4969557;28;98226;-75
2023/04/04 05:51:42;;;;;;;10.27;5.95;;;;;;;;;;4967519;28;99445;-75
2023/04/04 05:54:14;;;;;;;6.67;5.40;;;;;;;;;;4967910;28;99843;-75
2023/04/04 05:56:41;;;;;;;6.28;5.45;;;;;;;;;;4967860;28;98260;-75
2023/04/04 05:59:18;;;;;;;10.40;6.30;;;;;;;;;;4966653;28;99305;-75
2023/04/04 06:01:56;;;;;;;8.45;6.55;;;;;;;;;;4986857;28;101259;-75
2023/04/04 06:04:23;;;;;;;10.02;5.93;;;;;;;;;;4988580;28;98333;-75
2023/04/04 06:06:51;;;;;;;9.80;6.20;;;;;;;;;;4990413;28;98680;-75
2023/04/04 06:09:19;;;;;;;7.75;6.40;;;;;;;;;;4970548;28;98186;-75
2023/04/04 06:11:46;;;;;;;11.85;6.35;;;;;;;;;;4966610;28;100740;-76
2023/04/04 06:14:13;;;;;;;7.07;6.47;;;;;;;;;;4967438;28;101309;-75
2023/04/04 06:16:41;;;;;;;10.40;6.63;;;;;;;;;;4992542;28;98245;-75
2023/04/04 06:19:08;;;;;;;7.43;6.22;;;;;;;;;;4961862;28;100573;-75
2023/04/04 06:21:34;;;;;;;11.13;5.50;;;;;;;;;;4960236;28;98691;-75
2023/04/04 06:24:01;;;;;;;7.47;6.03;;;;;;;;;;4946217;28;98273;-75
2023/04/04 06:26:28;;;;;;;8.02;6.38;;;;;;;;;;4962535;28;101821;-75
2023/04/04 06:28:55;;;;;;;13.95;6.53;;;;;;;;;;4970139;28;100232;-75
2023/04/04 06:31:31;;;;;;;8.65;6.45;;;;;;;;;;4968979;28;98351;-75
2023/04/04 06:34:04;;;;;;;7.20;5.70;;;;;;;;;;4967024;28;101432;-75
2023/04/04 06:36:36;;;;;;;7.83;5.57;;;;;;;;;;4967476;28;98316;-76
2023/04/04 06:39:03;;;;;;;9.55;6.35;;;;;;;;;;4966856;28;100706;-74
2023/04/04 06:41:30;;;;;;;7.15;5.30;;;;;;;;;;4967097;28;101502;-75
2023/04/04 06:43:57;;;;;;;7.03;5.78;;;;;;;;;;4950345;28;98223;-74
2023/04/04 06:46:25;;;;;;;12.00;6.20;;;;;;;;;;4948444;28;99405;-74
2023/04/04 06:48:53;;;;;;;6.90;5.55;;;;;;;;;;4947786;28;99989;-74
2023/04/04 06:51:20;;;;;;;6.90;5.32;;;;;;;;;;4960211;28;98752;-75
2023/04/04 06:53:47;;;;;;;8.18;5.30;;;;;;;;;;4965696;28;101429;-75
2023/04/04 06:56:14;;;;;;;8.23;5.10;;;;;;;;;;4967328;28;98511;-74
2023/04/04 06:58:40;;;;;;;6.60;5.10;;;;;;;;;;4967396;28;98718;-75
2023/04/04 07:01:07;;;;;;;12.68;5.55;;;;;;;;;;4968040;28;98991;-75
2023/04/04 07:03:33;;;;;;;8.88;6.07;;;;;;;;;;4967999;28;98587;-76
2023/04/04 07:06:03;;;;;;;10.95;5.82;;;;;;;;;;4968881;28;100518;-77
2023/04/04 07:08:31;;;;;;;15.40;5.40;;;;;;;;;;4970680;28;99383;-76
2023/04/04 07:11:02;;;;;;;5.95;5.22;;;;;;;;;;4974024;28;99278;-76
2023/04/04 07:13:28;;;;;;;8.10;4.75;;;;;;;;;;4970713;28;99948;-76
2023/04/04 07:15:55;;;;;;;10.18;5.55;;;;;;;;;;4967542;28;99831;-75
2023/04/04 07:18:21;;;;;;;5.43;4.88;;;;;;;;;;4954159;28;98394;-76
2023/04/04 07:20:47;;;;;;;7.88;5.00;;;;;;;;;;4948411;28;100011;-75
2023/04/04 07:23:14;;;;;;;4.90;4.40;;;;;;;;;;4947980;28;98241;-76
2023/04/04 07:25:41;;;;;;;8.40;5.28;;;;;;;;;;4951123;28;99585;-76
2023/04/04 07:28:09;;;;;;;8.32;5.05;;;;;;;;;;4948442;28;100088;-76
2023/04/04 07:30:38;;;;;;;5.28;4.65;;;;;;;;;;4948073;28;98799;-76
2023/04/04 07:33:05;;;;;;;8.60;4.50;;;;;;;;;;4958607;28;98790;-76
2023/04/04 07:35:33;;;;;;;12.02;5.50;;;;;;;;;;4957561;28;99779;-76
2023/04/04 07:37:59;;;;;;;10.80;5.18;;;;;;;;;;4953558;28;99205;-75
2023/04/04 07:40:26;;;;;;;9.18;5.07;;;;;;;;;;4970418;28;99020;-76
2023/04/04 07:42:53;;;;;;;8.50;4.00;;;;;;;;;;4953651;28;98659;-76
2023/04/04 07:45:20;;;;;;;5.80;4.50;;;;;;;;;;4961358;28;99901;-75
2023/04/04 07:47:47;;;;;;;7.95;4.57;;;;;;;;;;4978524;28;100084;-75
2023/04/04 07:50:14;;;;;;;11.93;4.55;;;;;;;;;;4970682;28;98572;-76
2023/04/04 07:52:41;;;;;;;4.53;3.78;;;;;;;;;;4971411;28;99411;-76
2023/04/04 07:55:08;;;;;;;7.45;4.85;;;;;;;;;;4971521;28;100297;-76
2023/04/04 07:57:37;;;;;;;4.32;3.92;;;;;;;;;;4952336;28;98641;-75
2023/04/04 08:00:05;;;;;;;4.43;3.53;;;;;;;;;;4954342;28;102056;-75
2023/04/04 08:02:38;;;;;;;8.55;4.43;;;;;;;;;;4950655;28;98158;-74
2023/04/04 08:05:05;;;;;;;5.95;4.32;;;;;;;;;;4950432;28;99791;-75
2023/04/04 08:07:32;;;;;;;5.35;4.72;;;;;;;;;;4959442;28;100186;-79
2023/04/04 08:09:58;;;;;;;8.43;4.45;;;;;;;;;;4970650;28;98243;-75
2023/04/04 08:12:25;;;;;;;4.90;4.10;;;;;;;;;;4959973;28;98464;-74
2023/04/04 08:14:51;;;;;;;9.85;4.40;;;;;;;;;;4969844;28;99213;-76
2023/04/04 08:17:19;;;;;;;6.15;3.67;;;;;;;;;;4988715;28;99473;-76
2023/04/04 08:19:45;;;;;;;6.88;3.70;;;;;;;;;;4984333;28;101031;-76
2023/04/04 08:22:12;;;;;;;7.53;3.67;;;;;;;;;;4970555;28;98586;-75
2023/04/04 08:24:39;;;;;;;4.70;3.13;;;;;;;;;;4960163;28;99585;-75
2023/04/04 08:27:05;;;;;;;34.72;8.18;;;;;;;;;;4962099;28;98761;-75
2023/04/04 08:29:33;;;;;;;11.93;4.82;;;;;;;;;;4955107;28;99173;-76
2023/04/04 08:31:59;;;;;;;12.10;4.28;;;;;;;;;;4959814;28;98653;-77
2023/04/04 08:34:25;;;;;;;3.22;2.92;;;;;;;;;;4951224;28;99050;-76
2023/04/04 08:36:52;;;;;;;6.63;3.20;;;;;;;;;;4966866;28;98333;-75
2023/04/04 08:39:18;;;;;;;5.68;3.55;;;;;;;;;;4965260;28;99416;-74
2023/04/04 08:41:45;;;;;;;4.40;3.15;;;;;;;;;;4970268;28;98273;-76
2023/04/04 08:44:16;;;;;;;6.90;3.90;;;;;;;;;;4968230;28;98477;-75
2023/04/04 08:46:44;;;;;;;5.90;3.35;;;;;;;;;;4963671;28;99974;-74
2023/04/04 08:49:11;;;;;;;7.40;3.88;;;;;;;;;;4951581;28;98592;-75
2023/04/04 08:51:38;;;;;;;4.50;2.45;;;;;;;;;;4958814;28;99811;-75
2023/04/04 08:54:06;;;;;;;3.63;2.17;;;;;;;;;;4949780;28;100054;-76
2023/04/04 08:56:34;;;;;;;9.32;2.65;;;;;;;;;;4950547;28;98828;-74
2023/04/04 08:59:00;;;;;;;8.50;2.92;;;;;;;;;;4951752;28;98604;-75
2023/04/04 09:01:28;;;;;;;2.97;2.50;;;;;;;;;;4952765;28;100632;-75
2023/04/04 09:03:59;;;;;;;2.88;1.90;;;;;;;;;;4958582;28;99632;-76
2023/04/04 09:06:26;;;;;;;2.72;1.80;;;;;;;;;;4950523;28;100409;-75
2023/04/04 09:08:53;;;;;;;4.18;1.88;;;;;;;;;;4949312;28;98305;-75
2023/04/04 09:11:22;;;;;;;5.40;2.05;;;;;;;;;;4950359;28;98807;-75
2023/04/04 09:13:49;;;;;;;6.03;2.75;;;;;;;;;;4949886;28;99135;-75
2023/04/04 09:16:16;;;;;;;2.95;2.20;;;;;;;;;;4949611;28;98282;-75
2023/04/04 09:18:42;;;;;;;6.85;2.45;;;;;;;;;;4957834;28;99383;-76
2023/04/04 09:21:10;;;;;;;4.15;2.35;;;;;;;;;;4970849;28;100183;-75
2023/04/04 09:23:37;;;;;;;4.60;2.67;;;;;;;;;;4970051;28;99441;-75
2023/04/04 09:26:04;;;;;;;8.35;2.50;;;;;;;;;;4969502;28;99110;-75
2023/04/04 09:28:31;;;;;;;2.92;2.50;;;;;;;;;;4968920;28;98284;-76
2023/04/04 09:31:01;;;;;;;5.30;2.40;;;;;;;;;;4970747;28;98686;-75
2023/04/04 09:33:31;;;;;;;4.43;3.45;;;;;;;;;;4964780;28;99457;-75
2023/04/04 09:35:58;;;;;;;3.38;3.08;;;;;;;;;;4957221;28;98511;-75
2023/04/04 09:38:25;;;;;;;6.78;2.80;;;;;;;;;;4965819;28;99469;-76
2023/04/04 09:40:53;;;;;;;6.05;3.03;;;;;;;;;;4954635;28;99913;-81
2023/04/04 09:43:21;;;;;;;3.47;2.42;;;;;;;;;;4952658;28;98354;-76
2023/04/04 09:45:47;;;;;;;5.93;2.70;;;;;;;;;;4949467;28;100086;-75
2023/04/04 09:48:26;;;;;;;4.50;2.55;;;;;;;;;;4968283;28;98244;-75
2023/04/04 09:50:52;;;;;;;3.92;2.97;;;;;;;;;;4948633;28;100287;-75
2023/04/04 09:53:19;;;;;;;2.90;2.55;;;;;;;;;;4971904;28;99134;-75
2023/04/04 09:55:49;;;;;;;2.38;2.22;;;;;;;;;;4956102;28;99081;-75
2023/04/04 09:58:17;;;;;;;2.70;2.50;;;;;;;;;;4962154;28;99329;-75
2023/04/04 10:00:47;;;;;;;2.58;2.30;;;;;;;;;;4971338;28;100000;-76
2023/04/04 10:03:14;;;;;;;4.22;2.72;;;;;;;;;;4968863;28;98184;-75
2023/04/04 10:05:40;;;;;;;3.47;2.50;;;;;;;;;;4971391;28;98816;-76
2023/04/04 10:08:14;;;;;;;5.75;2.75;;;;;;;;;;4966510;28;98198;-77
2023/04/04 10:10:50;;;;;;;7.35;2.80;;;;;;;;;;4955459;28;99378;-76
2023/04/04 10:13:39;;;;;;;4.35;2.60;;;;;;;;;;4949434;28;100211;-74
2023/04/04 10:16:06;;;;;;;2.80;2.53;;;;;;;;;;4949803;28;98094;-75
2023/04/04 10:18:33;;;;;;;3.35;2.53;;;;;;;;;;4957211;28;98529;-77
2023/04/04 10:21:03;;;;;;;3.08;2.47;;;;;;;;;;4966884;28;99004;-76
2023/04/04 10:23:41;;;;;;;3.75;2.80;;;;;;;;;;4953752;28;99370;-75
2023/04/04 10:26:08;;;;;;;5.00;2.90;;;;;;;;;;4975449;28;98426;-75
2023/04/04 10:28:35;;;;;;;4.10;2.67;;;;;;;;;;4956155;28;98920;-75
2023/04/04 10:31:07;;;;;;;3.65;2.97;;;;;;;;;;4948416;28;99953;-75
2023/04/04 10:33:53;;;;;;;8.55;3.13;;;;;;;;;;4948795;28;100592;-75
2023/04/04 10:36:23;;;;;;;3.08;2.75;;;;;;;;;;4949406;28;98752;-75
2023/04/04 10:39:12;;;;;;;3.15;2.05;;;;;;;;;;4948625;28;98869;-75
2023/04/04 10:41:39;;;;;;;4.20;2.30;;;;;;;;;;4948633;28;100012;-75
2023/04/04 10:44:11;;;;;;;2.47;2.28;;;;;;;;;;4956037;28;98250;-75
2023/04/04 10:46:38;;;;;;;5.00;2.93;;;;;;;;;;4951025;28;99483;-75
2023/04/04 10:49:04;;;;;;;4.88;2.70;;;;;;;;;;4948822;28;100075;-75
2023/04/04 10:51:31;;;;;;;8.70;3.60;;;;;;;;;;4968068;28;98343;-76
2023/04/04 10:54:05;;;;;;;2.55;2.28;;;;;;;;;;4953091;28;100213;-76
2023/04/04 10:56:33;;;;;;;3.85;2.65;;;;;;;;;;4958050;28;98720;-75
2023/04/04 10:59:10;;;;;;;4.43;2.70;;;;;;;;;;4948330;28;99383;-75
2023/04/04 11:01:53;;;;;;;5.50;2.70;;;;;;;;;;4947594;28;99915;-75
2023/04/04 11:04:21;;;;;;;2.78;2.58;;;;;;;;;;4948871;28;98230;-75
2023/04/04 11:07:03;;;;;;;5.13;3.25;;;;;;;;;;4950646;28;99598;-75
2023/04/04 11:09:46;;;;;;;3.08;2.78;;;;;;;;;;4948302;28;99137;-75
2023/04/04 11:12:19;;;;;;;2.72;2.38;;;;;;;;;;4948172;28;100840;-75
2023/04/04 11:14:45;;;;;;;;;;;;;;;;;;4959605;28;99751;-75
2023/04/04 11:17:13;;;;;;;2.47;2.15;;;;;;;;;;4948913;28;122394;-75
2023/04/04 11:19:56;;;;;;;3.75;3.05;;;;;;;;;;4957729;28;98624;-75
2023/04/04 11:22:23;;;;;;;4.88;2.58;;;;;;;;;;4948025;28;99013;-75
2023/04/04 11:24:57;;;;;;;4.28;2.92;;;;;;;;;;4958560;28;98297;-75
2023/04/04 11:27:23;;;;;;;3.55;2.72;;;;;;;;;;4968023;28;99600;-76
2023/04/04 11:29:53;;;;;;;5.43;3.03;;;;;;;;;;4959056;28;99577;-75
2023/04/04 11:32:26;;;;;;;3.97;2.65;;;;;;;;;;4960575;28;98386;-75
2023/04/04 11:34:55;;;;;;;3.10;2.70;;;;;;;;;;4950567;28;99481;-75
2023/04/04 11:37:23;;;;;;;3.75;2.60;;;;;;;;;;4948391;28;98280;-75
2023/04/04 11:39:55;;;;;;;4.00;2.50;;;;;;;;;;4961467;28;99385;-75
2023/04/04 11:42:21;;;;;;;4.93;3.03;;;;;;;;;;4967184;28;99924;-76
2023/04/04 11:44:51;;;;;;;5.03;2.22;;;;;;;;;;4967775;28;98777;-76
2023/04/04 11:47:18;;;;;;;3.22;2.78;;;;;;;;;;4965473;28;99782;-76
2023/04/04 11:49:45;;;;;;;8.57;3.55;;;;;;;;;;4949941;28;98896;-75
2023/04/04 11:52:13;;;;;;;3.30;3.00;;;;;;;;;;4967816;28;98035;-75
2023/04/04 11:54:40;;;;;;;4.32;2.80;;;;;;;;;;4967826;28;99226;-75
2023/04/04 11:57:16;;;;;;;3.92;3.00;;;;;;;;;;4968811;28;99438;-75
2023/04/04 11:59:44;;;;;;;7.60;3.50;;;;;;;;;;4967364;28;98665;-76
2023/04/04 12:02:11;;;;;;;3.78;2.90;;;;;;;;;;4957374;28;99131;-74
2023/04/04 12:04:39;;;;;;;10.43;2.80;;;;;;;;;;4959648;28;99723;-75
2023/04/04 12:07:09;;;;;;;4.55;3.05;;;;;;;;;;4958069;28;99720;-74
2023/04/04 12:09:36;;;;;;;4.32;3.17;;;;;;;;;;4953358;28;100274;-75
2023/04/04 12:12:02;;;;;;;4.72;3.15;;;;;;;;;;4963038;28;98236;-75
2023/04/04 12:14:31;;;;;;;5.68;2.92;;;;;;;;;;4964213;28;98917;-76
2023/04/04 12:16:58;;;;;;;2.65;2.45;;;;;;;;;;4946896;28;100004;-75
2023/04/04 12:19:26;;;;;;;3.95;2.85;;;;;;;;;;4954906;28;98398;-75
2023/04/04 12:21:53;;;;;;;4.07;2.80;;;;;;;;;;4960394;28;99975;-75
2023/04/04 12:24:20;;;;;;;4.50;2.53;;;;;;;;;;4970110;28;98304;-74
2023/04/04 12:26:50;;;;;;;4.10;2.97;;;;;;;;;;4951581;28;99885;-75
2023/04/04 12:29:18;;;;;;;10.00;3.13;;;;;;;;;;4952294;28;99132;-75
2023/04/04 12:31:45;;;;;;;7.18;3.00;;;;;;;;;;4962153;28;98269;-76
2023/04/04 12:34:15;;;;;;;2.20;2.00;;;;;;;;;;4955261;28;98977;-75
2023/04/04 12:36:42;;;;;;;3.78;2.42;;;;;;;;;;4955011;28;100135;-75
2023/04/04 12:39:10;;;;;;;3.08;2.47;;;;;;;;;;4958153;28;98733;-77
2023/04/04 12:42:07;;;;;;;2.67;2.42;;;;;;;;;;4973789;28;98603;-76
2023/04/04 12:44:34;;;;;;;2.22;2.03;;;;;;;;;;4965113;28;98349;-75
2023/04/04 12:47:05;;;;;;;3.08;2.70;;;;;;;;;;4957488;28;98606;-74
2023/04/04 12:49:33;;;;;;;5.25;2.78;;;;;;;;;;4976002;28;99003;-75
2023/04/04 12:52:03;;;;;;;3.30;2.63;;;;;;;;;;4951204;28;98180;-75
2023/04/04 12:54:31;;;;;;;3.22;2.95;;;;;;;;;;4951041;28;98693;-75
2023/04/04 12:56:58;;;;;;;9.27;3.03;;;;;;;;;;4950411;28;99685;-75
2023/04/04 12:59:28;;;;;;;3.17;2.65;;;;;;;;;;4949743;28;99141;-75
2023/04/04 13:01:54;;;;;;;5.60;4.22;;;;;;;;;;4950497;28;100336;-75
2023/04/04 13:04:21;;;;;;;3.85;3.00;;;;;;;;;;4969092;28;100007;-76
2023/04/04 13:06:49;;;;;;;4.15;2.78;;;;;;;;;;4952639;28;98535;-75
2023/04/04 13:09:17;;;;;;;4.13;3.10;;;;;;;;;;4953135;28;100891;-76
2023/04/04 13:11:57;;;;;;;5.90;3.25;;;;;;;;;;4954783;28;98252;-75
2023/04/04 13:14:25;;;;;;;4.72;3.90;;;;;;;;;;4949211;28;99860;-76
2023/04/04 13:17:02;;;;;;;3.97;2.80;;;;;;;;;;4951135;28;99085;-75
2023/04/04 13:19:28;;;;;;;6.28;3.15;;;;;;;;;;4951901;28;102790;-75
2023/04/04 13:21:54;;;;;;;6.07;3.17;;;;;;;;;;4949372;28;99367;-75
2023/04/04 13:24:21;;;;;;;3.60;3.30;;;;;;;;;;4951483;28;100069;-79
2023/04/04 13:26:47;;;;;;;6.90;3.50;;;;;;;;;;4967463;28;98221;-79
2023/04/04 13:29:13;;;;;;;6.50;3.05;;;;;;;;;;4968650;28;100023;-79
2023/04/04 13:31:40;;;;;;;4.13;3.10;;;;;;;;;;4969477;28;98232;-78
2023/04/04 13:34:06;;;;;;;3.83;3.00;;;;;;;;;;4955298;28;99628;-79
2023/04/04 13:36:33;;;;;;;7.95;3.33;;;;;;;;;;4950034;28;99956;-80
2023/04/04 13:39:00;;;;;;;3.55;3.00;;;;;;;;;;4955500;28;98387;-79
2023/04/04 13:41:26;;;;;;;3.67;2.65;;;;;;;;;;4963190;28;99383;-79
2023/04/04 13:43:52;;;;;;;4.03;2.78;;;;;;;;;;4966084;28;99192;-79
2023/04/04 13:46:19;;;;;;;3.95;2.72;;;;;;;;;;4957446;28;99732;-79
2023/04/04 13:48:45;;;;;;;6.95;3.25;;;;;;;;;;4949247;28;98483;-79
2023/04/04 13:51:12;;;;;;;4.60;3.13;;;;;;;;;;4949739;28;98395;-79
2023/04/04 13:53:38;;;;;;;7.45;3.38;;;;;;;;;;4949918;28;99771;-80
2023/04/04 13:56:04;;;;;;;3.63;3.15;;;;;;;;;;4951250;28;100064;-78
2023/04/04 13:58:34;;;;;;;3.83;3.05;;;;;;;;;;4954866;28;98334;-79
2023/04/04 14:01:05;;;;;;;7.75;3.65;;;;;;;;;;4951881;28;98603;-78
2023/04/04 14:03:32;;;;;;;7.35;4.00;;;;;;;;;;4956870;28;98899;-78
2023/04/04 14:05:58;;;;;;;8.15;3.38;;;;;;;;;;4969074;28;98537;-79
2023/04/04 14:08:35;;;;;;;4.85;3.40;;;;;;;;;;4956274;28;98541;-79
2023/04/04 14:11:02;;;;;;;5.13;3.10;;;;;;;;;;4950150;28;99083;-76
2023/04/04 14:13:31;;;;;;;3.60;3.08;;;;;;;;;;4962002;28;98781;-76
2023/04/04 14:15:57;;;;;;;3.70;3.40;;;;;;;;;;4949579;28;99320;-76
2023/04/04 14:18:24;;;;;;;5.78;3.50;;;;;;;;;;4952411;28;98269;-75
2023/04/04 14:20:50;;;;;;;3.72;3.42;;;;;;;;;;4951258;28;99660;-75
2023/04/04 14:23:17;;;;;;;3.35;3.05;;;;;;;;;;4961511;28;100244;-76
2023/04/04 14:25:43;;;;;;;3.88;3.28;;;;;;;;;;4968187;28;98548;-76
2023/04/04 14:28:10;;;;;;;4.82;3.65;;;;;;;;;;4960332;28;99875;-76
2023/04/04 14:30:36;;;;;;;3.78;3.47;;;;;;;;;;4964911;28;99832;-76
2023/04/04 14:33:02;;;;;;;6.28;2.60;;;;;;;;;;4969837;28;98762;-77
2023/04/04 14:35:29;;;;;;;3.33;3.13;;;;;;;;;;4969049;28;99029;-77
2023/04/04 14:37:55;;;;;;;7.20;3.35;;;;;;;;;;4968505;28;98557;-76
2023/04/04 14:40:22;;;;;;;3.92;3.13;;;;;;;;;;4968472;28;98581;-77
2023/04/04 14:42:48;;;;;;;3.85;3.35;;;;;;;;;;4969243;28;99137;-76
2023/04/04 14:45:15;;;;;;;10.57;3.40;;;;;;;;;;4978928;28;98322;-74